Aérodrome :
LOGIN :

S'inscrire | Disclaimer

   EN    FR    IT 

 










Légende :    VFR   VFR Marginal   IFR   IFR Intensif   IFR Très Intensif
Visi : 
Plafond : 
>= 8 km
>= 3000ft
5 à 8 km
1000 à 3000 ft
1500m à 5 km
500 à 1000 ft
800 à 1500m
200 à 500 ft
< 800m
< 200 ft
Symboles :   Orages  Brouillard  Fortes neiges  Fortes précipitations  Vent > 20 kt
SIGMETs :   Divers  Orages  Givrage  Turbulence  Onde Orograph.  Cendres Volcan.






- Altitude de l'aérodrome : 141 ft
- Code IATA : TGD


LYPG - Podgorica - Montenegro

DERNIER METAR :
  • 240930Z 13012KT 100V170 9999 SCT040 17/07 Q1009 NOSIG

METARs EXPIRÉS :
  • 240900Z 14010KT 110V190 9999 FEW033TCU SCT040 17/07 Q1009 NOSIG
  • 240830Z 14011KT 110V170 9999 FEW030TCU SCT040 16/07 Q1009 NOSIG
  • 240800Z 13011KT 9999 FEW030TCU SCT040 16/08 Q1009 NOSIG
  • 240730Z 13009KT 100V170 9999 SCT027 15/09 Q1009 NOSIG
  • 240700Z 12008KT 9999 SCT027 SCT070 15/09 Q1008 NOSIG
  • 240630Z 13008KT 100V160 9999 FEW013 SCT027 14/11 Q1008 NOSIG
  • 240600Z 00000KT 9999 FEW013 SCT027 12/11 Q1008 NOSIG
  • 240530Z 12003KT 8000 FEW013 SCT027 11/10 Q1008 NOSIG

TAF TAF LYPG
Valide du 24 à 06h jusqu'au 25 à 06h UTC


240500Z 2406/2506 14005KT 9999 SCT033 TX18/2413Z TN09/2504Z
PROB30
TEMPO 2410/2415 20010KT SHRA FEW030TCU SCT033
PROB40
TEMPO 2421/2501 4000 RA



MET'MAP, la Météo Aéronautique d'un coup d'oeil ! - Copyright ORBIFLY Décembre 2007 - Disclaimer

ORBIFLY MET'MAP TEAM :

Programmation & Développement : Alexandra Zaïnal
Sur une idée originale de : Baudouin d'Aumeries
Soutien technique & logistique : Manuel Goepfert
Assistance : Marc-Olivier Méhu




SOURCES & CREDITS :

   NOAA